Time;durP1;ratioP1;P1;durP2;ratioP2;P2;SDS_P1;SDS_P2;PMS_P1;PMS_P2;Temp;Humidity;BMP_temperature;BMP_pressure;BME280_temperature;BME280_humidity;BME280_pressure;Samples;Min_cycle;Max_cycle;Signal;HPM_P1;HPM_P2
2023/11/04 00:02:17;;;;;;;4.50;1.60;;;8.10;99.90;;;;;;4928557;29;20194;-72
2023/11/04 00:04:43;;;;;;;2.07;1.20;;;7.90;99.90;;;;;;4927330;29;20536;-73
2023/11/04 00:07:08;;;;;;;2.80;2.00;;;7.80;99.90;;;;;;4943728;29;20204;-72
2023/11/04 00:09:34;;;;;;;3.30;1.93;;;7.70;99.90;;;;;;4943990;29;20501;-70
2023/11/04 00:12:00;;;;;;;3.10;1.70;;;7.70;99.90;;;;;;4933512;29;20220;-71
2023/11/04 00:14:25;;;;;;;2.50;1.67;;;7.60;99.90;;;;;;4931366;29;20260;-71
2023/11/04 00:16:51;;;;;;;4.37;1.30;;;7.60;99.90;;;;;;4925799;29;20310;-70
2023/11/04 00:19:18;;;;;;;2.47;1.40;;;7.60;99.90;;;;;;4933726;29;20563;-71
2023/11/04 00:21:43;;;;;;;5.03;1.17;;;7.50;99.90;;;;;;4934457;29;20185;-70
2023/11/04 00:24:10;;;;;;;1.90;1.03;;;7.50;99.90;;;;;;4922948;29;20869;-75
2023/11/04 00:26:37;;;;;;;2.47;0.83;;;7.40;99.90;;;;;;4905371;29;20273;-72
2023/11/04 00:29:03;;;;;;;1.27;0.80;;;7.40;99.90;;;;;;4910785;29;20438;-74
2023/11/04 00:31:29;;;;;;;1.63;0.90;;;7.30;99.90;;;;;;4928856;29;20494;-70
2023/11/04 00:33:55;;;;;;;1.10;0.70;;;7.30;99.90;;;;;;4941831;29;20186;-72
2023/11/04 00:36:21;;;;;;;1.70;0.80;;;7.30;99.90;;;;;;4918417;29;20453;-71
2023/11/04 00:38:46;;;;;;;1.90;1.00;;;7.20;99.90;;;;;;4919700;29;20726;-72
2023/11/04 00:41:12;;;;;;;1.83;1.10;;;7.20;99.90;;;;;;4935105;29;20202;-72
2023/11/04 00:43:37;;;;;;;2.43;1.30;;;7.20;99.90;;;;;;4943367;29;20270;-71
2023/11/04 00:46:03;;;;;;;2.73;1.40;;;7.20;99.90;;;;;;4910260;29;20289;-71
2023/11/04 00:48:29;;;;;;;3.40;1.70;;;7.20;99.90;;;;;;4908365;29;20198;-72
2023/11/04 00:50:55;;;;;;;2.80;1.90;;;7.40;99.90;;;;;;4909577;29;20662;-74
2023/11/04 00:53:20;;;;;;;2.50;2.23;;;7.50;99.90;;;;;;4911442;29;20458;-71
2023/11/04 00:55:46;;;;;;;3.43;1.97;;;7.60;99.90;;;;;;4933721;29;20218;-71
2023/11/04 00:58:12;;;;;;;2.43;1.20;;;7.60;99.90;;;;;;4940297;29;20233;-70
2023/11/04 01:00:39;;;;;;;2.23;1.30;;;7.70;99.90;;;;;;4939716;29;20430;-70
2023/11/04 01:03:05;;;;;;;1.73;1.00;;;7.70;99.90;;;;;;4926548;29;20198;-75
2023/11/04 01:05:30;;;;;;;1.70;0.90;;;7.70;99.90;;;;;;4939130;29;20722;-71
2023/11/04 01:07:56;;;;;;;1.60;0.80;;;7.80;99.90;;;;;;4945268;29;20421;-70
2023/11/04 01:10:22;;;;;;;2.17;0.80;;;7.80;99.90;;;;;;4933722;29;20226;-70
2023/11/04 01:12:47;;;;;;;7.03;1.23;;;7.80;99.90;;;;;;4917214;29;20299;-71
2023/11/04 01:15:13;;;;;;;3.07;1.13;;;7.90;99.90;;;;;;4937330;29;20221;-69
2023/11/04 01:17:39;;;;;;;1.37;0.97;;;7.90;99.90;;;;;;4928720;29;20238;-71
2023/11/04 01:20:07;;;;;;;1.50;0.83;;;7.90;99.90;;;;;;4924934;29;20561;-71
2023/11/04 01:22:33;;;;;;;1.83;1.20;;;8.00;99.90;;;;;;4918479;29;20577;-71
2023/11/04 01:24:58;;;;;;;2.60;1.00;;;8.00;99.90;;;;;;4942783;29;20504;-70
2023/11/04 01:27:24;;;;;;;1.40;1.10;;;7.90;99.90;;;;;;4938363;29;20252;-72
2023/11/04 01:29:49;;;;;;;2.80;1.27;;;7.90;99.90;;;;;;4943399;29;20256;-71
2023/11/04 01:32:15;;;;;;;2.40;0.83;;;7.80;99.90;;;;;;4934513;29;20208;-71
2023/11/04 01:34:41;;;;;;;2.30;0.73;;;7.80;99.90;;;;;;4943534;29;20222;-70
2023/11/04 01:37:06;;;;;;;2.50;0.90;;;7.80;99.90;;;;;;4934220;29;20194;-71
2023/11/04 01:39:33;;;;;;;1.83;1.10;;;7.70;99.90;;;;;;4924180;29;20242;-70
2023/11/04 01:42:07;;;;;;;1.20;0.70;;;7.60;99.90;;;;;;4920930;29;20233;-71
2023/11/04 01:44:33;;;;;;;1.20;0.70;;;7.60;99.90;;;;;;4923787;29;20733;-70
2023/11/04 01:47:02;;;;;;;1.83;0.73;;;7.50;99.90;;;;;;4933280;29;20501;-71
2023/11/04 01:49:28;;;;;;;1.10;0.60;;;7.40;99.90;;;;;;4923439;29;20551;-70
2023/11/04 01:51:56;;;;;;;1.00;0.60;;;7.40;99.90;;;;;;4906229;29;20415;-70
2023/11/04 01:54:23;;;;;;;1.40;0.60;;;7.30;99.90;;;;;;4921967;29;20485;-70
2023/11/04 01:56:49;;;;;;;1.27;0.83;;;7.30;99.90;;;;;;4926712;29;20448;-70
2023/11/04 01:59:15;;;;;;;2.17;0.80;;;7.20;99.90;;;;;;4906883;29;20471;-70
2023/11/04 02:01:45;;;;;;;1.23;0.80;;;7.20;99.90;;;;;;4905599;29;20438;-71
2023/11/04 02:04:12;;;;;;;1.47;0.60;;;7.20;99.90;;;;;;4923204;29;20901;-71
2023/11/04 02:06:38;;;;;;;1.63;0.73;;;7.20;99.90;;;;;;4919767;29;20418;-70
2023/11/04 02:09:04;;;;;;;2.23;0.67;;;7.20;99.90;;;;;;4933491;29;20928;-70
2023/11/04 02:11:29;;;;;;;0.90;0.70;;;7.20;99.90;;;;;;4944677;29;20470;-68
2023/11/04 02:13:55;;;;;;;1.53;0.70;;;7.20;99.90;;;;;;4934784;29;20436;-69
2023/11/04 02:16:21;;;;;;;2.67;1.00;;;7.20;99.90;;;;;;4940655;29;20237;-72
2023/11/04 02:18:47;;;;;;;1.63;0.70;;;7.20;99.90;;;;;;4928242;29;20786;-68
2023/11/04 02:21:12;;;;;;;1.50;0.77;;;7.20;99.90;;;;;;4929805;29;20470;-71
2023/11/04 02:23:39;;;;;;;1.97;0.80;;;7.20;99.90;;;;;;4909247;29;20190;-70
2023/11/04 02:26:04;;;;;;;1.73;0.87;;;7.20;99.90;;;;;;4911478;29;20285;-70
2023/11/04 02:28:30;;;;;;;1.83;0.83;;;7.20;99.90;;;;;;4913527;29;20474;-70
2023/11/04 02:30:56;;;;;;;1.80;1.10;;;7.30;99.90;;;;;;4918285;29;20182;-70
2023/11/04 02:33:21;;;;;;;3.33;0.87;;;7.40;99.90;;;;;;4931506;29;20205;-70
2023/11/04 02:35:49;;;;;;;1.23;0.90;;;7.50;99.90;;;;;;4911837;29;20218;-69
2023/11/04 02:38:15;;;;;;;1.90;1.10;;;7.60;99.90;;;;;;4944718;29;20193;-70
2023/11/04 02:40:42;;;;;;;1.43;0.80;;;7.70;99.90;;;;;;4944404;29;20429;-69
2023/11/04 02:43:08;;;;;;;1.57;0.90;;;7.80;99.90;;;;;;4899674;29;20643;-70
2023/11/04 02:45:34;;;;;;;1.50;0.90;;;7.90;99.90;;;;;;4930826;29;20470;-70
2023/11/04 02:48:01;;;;;;;2.50;1.00;;;7.90;99.90;;;;;;4922519;29;20535;-69
2023/11/04 02:50:27;;;;;;;2.37;0.90;;;7.80;99.90;;;;;;4934434;29;20186;-70
2023/11/04 02:52:53;;;;;;;2.17;0.73;;;7.70;99.90;;;;;;4944809;29;20432;-70
2023/11/04 02:55:18;;;;;;;1.50;0.80;;;7.70;99.90;;;;;;4924232;29;20579;-68
2023/11/04 02:57:44;;;;;;;4.80;1.10;;;7.80;99.90;;;;;;4914880;29;20309;-70
2023/11/04 03:00:10;;;;;;;1.83;0.90;;;7.80;99.90;;;;;;4906057;29;20338;-71
2023/11/04 03:02:36;;;;;;;1.60;0.97;;;7.90;99.90;;;;;;4904904;29;20191;-71
2023/11/04 03:05:04;;;;;;;1.10;0.80;;;8.00;99.90;;;;;;4921467;29;20473;-68
2023/11/04 03:07:30;;;;;;;2.23;1.10;;;8.00;99.90;;;;;;4922421;29;20191;-71
2023/11/04 03:09:55;;;;;;;1.83;0.90;;;8.10;99.90;;;;;;4905710;29;20422;-69
2023/11/04 03:12:21;;;;;;;1.50;0.80;;;8.20;99.90;;;;;;4923478;29;20434;-69
2023/11/04 03:14:47;;;;;;;1.70;0.70;;;8.20;99.90;;;;;;4926866;29;20513;-70
2023/11/04 03:17:12;;;;;;;1.30;1.00;;;8.20;99.90;;;;;;4922295;29;20202;-71
2023/11/04 03:19:38;;;;;;;4.33;1.00;;;8.20;99.90;;;;;;4936704;29;20224;-71
2023/11/04 03:22:04;;;;;;;1.13;0.70;;;8.10;99.90;;;;;;4933602;29;20197;-70
2023/11/04 03:24:30;;;;;;;2.07;1.07;;;8.10;99.90;;;;;;4920654;29;20838;-70
2023/11/04 03:26:55;;;;;;;2.03;1.27;;;8.10;99.90;;;;;;4923675;29;20467;-74
2023/11/04 03:29:21;;;;;;;4.93;1.47;;;8.20;99.90;;;;;;4921463;29;20210;-70
2023/11/04 03:31:47;;;;;;;1.67;0.80;;;8.30;99.90;;;;;;4904407;29;20179;-68
2023/11/04 03:34:13;;;;;;;1.93;1.13;;;8.30;99.90;;;;;;4920149;29;20198;-71
2023/11/04 03:36:38;;;;;;;1.40;0.77;;;8.40;99.90;;;;;;4920455;29;20421;-70
2023/11/04 03:39:04;;;;;;;1.67;0.80;;;8.40;99.90;;;;;;4920182;29;20202;-69
2023/11/04 03:41:29;;;;;;;1.50;0.93;;;8.40;99.90;;;;;;4921976;29;20578;-69
2023/11/04 03:43:55;;;;;;;1.70;1.10;;;8.50;99.90;;;;;;4930338;29;20189;-69
2023/11/04 03:46:20;;;;;;;1.93;0.90;;;8.50;99.90;;;;;;4903425;29;20318;-70
2023/11/04 03:48:48;;;;;;;1.50;0.90;;;8.50;99.90;;;;;;4920483;29;20230;-69
2023/11/04 03:51:13;;;;;;;1.30;0.70;;;8.50;99.90;;;;;;4920780;29;20201;-70
2023/11/04 03:53:39;;;;;;;2.73;0.83;;;8.50;99.90;;;;;;4922651;29;20411;-68
2023/11/04 03:56:05;;;;;;;1.10;0.70;;;8.50;99.90;;;;;;4915779;29;20238;-70
2023/11/04 03:58:30;;;;;;;1.77;0.90;;;8.50;99.90;;;;;;4928098;29;20662;-69
2023/11/04 04:00:56;;;;;;;2.40;0.80;;;8.50;99.90;;;;;;4921018;29;20443;-69
2023/11/04 04:03:22;;;;;;;1.50;0.93;;;8.40;99.90;;;;;;4920742;29;20202;-71
2023/11/04 04:05:48;;;;;;;1.70;1.03;;;8.40;99.90;;;;;;4921041;29;20226;-70
2023/11/04 04:08:15;;;;;;;1.87;0.87;;;8.30;99.90;;;;;;4926364;29;20209;-69
2023/11/04 04:10:41;;;;;;;3.30;0.93;;;8.20;99.90;;;;;;4926043;29;20201;-70
2023/11/04 04:13:06;;;;;;;1.73;0.90;;;8.10;99.90;;;;;;4913002;29;20598;-70
2023/11/04 04:15:32;;;;;;;2.70;1.20;;;7.90;99.90;;;;;;4923813;29;20442;-70
2023/11/04 04:17:58;;;;;;;1.30;0.90;;;7.80;99.90;;;;;;4930276;29;20596;-70
2023/11/04 04:20:23;;;;;;;2.43;1.10;;;7.70;99.90;;;;;;4942099;29;20608;-70
2023/11/04 04:22:49;;;;;;;1.43;0.80;;;7.70;99.90;;;;;;4942318;29;20213;-71
2023/11/04 04:25:15;;;;;;;2.03;0.90;;;7.60;99.90;;;;;;4942544;29;20613;-69
2023/11/04 04:27:41;;;;;;;1.10;0.70;;;7.60;99.90;;;;;;4937874;29;20202;-69
2023/11/04 04:30:07;;;;;;;3.13;0.97;;;7.50;99.90;;;;;;4923407;29;20198;-69
2023/11/04 04:32:33;;;;;;;2.37;0.80;;;7.50;99.90;;;;;;4923479;29;20917;-69
2023/11/04 04:34:59;;;;;;;1.20;0.83;;;7.50;99.90;;;;;;4926870;29;20437;-69
2023/11/04 04:37:24;;;;;;;1.83;0.90;;;7.40;99.90;;;;;;4928683;29;20260;-70
2023/11/04 04:39:51;;;;;;;1.60;0.90;;;7.40;99.90;;;;;;4927165;29;20198;-69
2023/11/04 04:42:16;;;;;;;1.00;0.70;;;7.40;99.90;;;;;;4934221;29;20197;-70
2023/11/04 04:44:42;;;;;;;1.20;0.80;;;7.40;99.90;;;;;;4932186;29;20476;-68
2023/11/04 04:47:08;;;;;;;1.73;0.80;;;7.40;99.90;;;;;;4924914;29;20198;-69
2023/11/04 04:49:34;;;;;;;1.10;0.80;;;7.40;99.90;;;;;;4924769;29;20261;-70
2023/11/04 04:51:59;;;;;;;1.13;0.70;;;7.40;99.90;;;;;;4923850;29;20202;-69
2023/11/04 04:54:25;;;;;;;1.87;0.93;;;7.40;99.90;;;;;;4924478;29;20218;-70
2023/11/04 04:56:50;;;;;;;2.50;0.70;;;7.40;99.90;;;;;;4927488;29;20197;-70
2023/11/04 04:59:16;;;;;;;1.80;1.03;;;7.40;99.90;;;;;;4923708;29;20630;-69
2023/11/04 05:01:42;;;;;;;1.40;0.80;;;7.50;99.90;;;;;;4923114;29;20628;-70
2023/11/04 05:04:08;;;;;;;1.57;1.00;;;7.60;99.90;;;;;;4941921;29;20428;-70
2023/11/04 05:06:34;;;;;;;1.87;0.93;;;7.60;99.90;;;;;;4933619;29;20195;-69
2023/11/04 05:08:59;;;;;;;1.87;0.83;;;7.60;99.90;;;;;;4940674;29;20508;-69
2023/11/04 05:11:26;;;;;;;1.87;0.70;;;7.60;99.90;;;;;;4943476;29;20417;-70
2023/11/04 05:13:52;;;;;;;2.50;1.40;;;7.60;99.90;;;;;;4933570;29;20225;-69
2023/11/04 05:16:18;;;;;;;2.40;0.90;;;7.60;99.90;;;;;;4925216;29;20450;-71
2023/11/04 05:18:44;;;;;;;1.30;0.80;;;7.50;99.90;;;;;;4929092;29;20441;-69
2023/11/04 05:21:09;;;;;;;1.60;0.70;;;7.50;99.90;;;;;;4924555;29;20205;-69
2023/11/04 05:23:35;;;;;;;1.77;0.70;;;7.40;99.90;;;;;;4940830;29;20620;-69
2023/11/04 05:26:00;;;;;;;1.10;0.60;;;7.40;99.90;;;;;;4931945;29;20236;-70
2023/11/04 05:28:26;;;;;;;1.73;1.10;;;7.40;99.90;;;;;;4928927;29;20265;-70
2023/11/04 05:30:52;;;;;;;1.20;0.80;;;7.40;99.90;;;;;;4927225;29;20198;-70
2023/11/04 05:33:19;;;;;;;1.57;0.80;;;7.40;99.90;;;;;;4925114;29;20658;-70
2023/11/04 05:35:45;;;;;;;1.00;0.70;;;7.40;99.90;;;;;;4926241;29;20808;-70
2023/11/04 05:38:11;;;;;;;1.23;0.60;;;7.40;99.90;;;;;;4929248;29;20423;-69
2023/11/04 05:40:37;;;;;;;2.07;0.90;;;7.40;99.90;;;;;;4926888;29;20791;-69
2023/11/04 05:43:03;;;;;;;1.30;0.73;;;7.40;99.90;;;;;;4919681;29;20201;-70
2023/11/04 05:45:28;;;;;;;1.27;0.73;;;7.50;99.90;;;;;;4929064;29;20482;-69
2023/11/04 05:47:54;;;;;;;1.57;0.60;;;7.40;99.90;;;;;;4935319;29;20170;-70
2023/11/04 05:50:19;;;;;;;1.13;0.70;;;7.40;99.90;;;;;;4929603;29;20282;-72
2023/11/04 05:52:45;;;;;;;1.30;0.70;;;7.30;99.90;;;;;;4922532;29;20193;-70
2023/11/04 05:55:14;;;;;;;1.70;0.93;;;7.30;99.90;;;;;;4905694;29;20506;-71
2023/11/04 05:57:41;;;;;;;1.37;0.70;;;7.30;99.90;;;;;;4931525;29;20462;-70
2023/11/04 06:00:11;;;;;;;2.03;0.80;;;7.30;99.90;;;;;;4907797;29;20520;-70
2023/11/04 06:02:41;;;;;;;1.00;0.67;;;7.30;99.90;;;;;;4930069;29;20429;-70
2023/11/04 06:05:08;;;;;;;1.10;0.60;;;7.40;99.90;;;;;;4922149;29;20553;-70
2023/11/04 06:07:34;;;;;;;1.97;0.80;;;7.40;99.90;;;;;;4922159;29;20680;-70
2023/11/04 06:10:00;;;;;;;2.10;0.80;;;7.40;99.90;;;;;;4922551;29;20446;-71
2023/11/04 06:12:26;;;;;;;1.20;0.73;;;7.30;99.90;;;;;;4929668;29;20427;-70
2023/11/04 06:14:51;;;;;;;1.40;0.70;;;7.30;99.90;;;;;;4924392;29;20482;-70
2023/11/04 06:17:17;;;;;;;2.50;1.20;;;7.30;99.90;;;;;;4922546;29;20198;-70
2023/11/04 06:19:42;;;;;;;1.60;0.70;;;7.30;99.90;;;;;;4922248;29;20547;-70
2023/11/04 06:22:08;;;;;;;2.40;0.80;;;7.40;99.90;;;;;;4937075;29;20264;-70
2023/11/04 06:24:37;;;;;;;1.03;0.77;;;7.60;99.90;;;;;;4933221;29;20226;-69
2023/11/04 06:27:03;;;;;;;1.03;0.60;;;7.80;99.90;;;;;;4927635;29;20244;-70
2023/11/04 06:29:28;;;;;;;4.47;1.00;;;7.90;99.90;;;;;;4924197;29;20422;-70
2023/11/04 06:31:54;;;;;;;5.87;1.20;;;8.00;99.90;;;;;;4932680;29;20209;-71
2023/11/04 06:34:19;;;;;;;1.03;0.70;;;8.10;99.90;;;;;;4932094;29;20245;-71
2023/11/04 06:36:45;;;;;;;4.70;1.30;;;8.20;99.90;;;;;;4923427;29;20198;-69
2023/11/04 06:39:11;;;;;;;1.43;1.10;;;8.20;99.90;;;;;;4938142;29;20300;-69
2023/11/04 06:41:37;;;;;;;3.37;1.17;;;8.30;99.90;;;;;;4941098;29;20209;-70
2023/11/04 06:44:03;;;;;;;2.60;1.07;;;8.30;99.90;;;;;;4923920;29;20750;-70
2023/11/04 06:46:29;;;;;;;5.67;1.30;;;8.30;99.90;;;;;;4923379;29;20719;-70
2023/11/04 06:48:56;;;;;;;1.50;1.00;;;8.40;99.90;;;;;;4934850;29;20280;-70
2023/11/04 06:51:22;;;;;;;1.10;0.70;;;8.50;99.90;;;;;;4938537;29;20492;-70
2023/11/04 06:53:48;;;;;;;2.27;0.93;;;8.50;99.90;;;;;;4942505;29;20425;-70
2023/11/04 06:56:14;;;;;;;1.83;0.70;;;8.50;99.90;;;;;;4937171;29;20206;-69
2023/11/04 06:58:40;;;;;;;2.30;1.03;;;8.60;99.90;;;;;;4926902;29;20482;-71
2023/11/04 07:01:07;;;;;;;1.37;1.00;;;8.70;99.90;;;;;;4924124;29;20198;-70
2023/11/04 07:03:32;;;;;;;1.00;0.80;;;8.70;99.90;;;;;;4924129;29;20202;-70
2023/11/04 07:05:58;;;;;;;2.87;1.10;;;8.70;99.90;;;;;;4922158;29;20549;-70
2023/11/04 07:08:23;;;;;;;2.17;0.80;;;8.70;99.90;;;;;;4921564;29;20187;-70
2023/11/04 07:10:50;;;;;;;1.73;0.80;;;8.70;99.90;;;;;;4922903;29;20609;-72
2023/11/04 07:13:16;;;;;;;2.10;0.90;;;8.80;99.90;;;;;;4936978;29;20204;-71
2023/11/04 07:15:43;;;;;;;1.50;0.80;;;8.90;99.90;;;;;;4923016;29;20458;-70
2023/11/04 07:18:10;;;;;;;2.77;1.27;;;8.90;99.90;;;;;;4915366;29;20230;-72
2023/11/04 07:20:38;;;;;;;1.67;0.93;;;8.90;99.90;;;;;;4930687;29;20800;-70
2023/11/04 07:23:04;;;;;;;1.40;0.80;;;9.00;99.90;;;;;;4935451;29;20417;-70
2023/11/04 07:25:30;;;;;;;1.40;0.80;;;9.00;99.90;;;;;;4942516;29;20478;-71
2023/11/04 07:27:58;;;;;;;2.50;0.90;;;9.10;99.90;;;;;;4925948;29;20601;-70
2023/11/04 07:30:24;;;;;;;2.03;0.80;;;9.10;99.90;;;;;;4934342;29;20497;-70
2023/11/04 07:32:50;;;;;;;2.47;0.80;;;9.10;99.90;;;;;;4945798;29;20723;-68
2023/11/04 07:35:16;;;;;;;2.17;1.00;;;9.10;99.90;;;;;;4946375;29;20468;-71
2023/11/04 07:37:41;;;;;;;1.33;0.80;;;9.20;99.90;;;;;;4923342;29;20250;-71
2023/11/04 07:40:08;;;;;;;1.67;0.90;;;9.20;99.90;;;;;;4932613;29;20656;-70
2023/11/04 07:42:34;;;;;;;3.63;1.00;;;9.30;99.90;;;;;;4921817;29;20198;-70
2023/11/04 07:45:00;;;;;;;2.33;0.80;;;9.40;99.90;;;;;;4929476;29;20552;-71
2023/11/04 07:47:25;;;;;;;3.07;0.90;;;9.40;99.90;;;;;;4922046;29;20497;-70
2023/11/04 07:49:51;;;;;;;1.50;0.90;;;9.50;99.90;;;;;;4931758;29;20226;-70
2023/11/04 07:52:17;;;;;;;2.50;1.10;;;9.50;99.90;;;;;;4922807;29;20201;-71
2023/11/04 07:54:43;;;;;;;1.00;0.80;;;9.60;99.90;;;;;;4937999;29;20636;-69
2023/11/04 07:57:09;;;;;;;1.17;0.90;;;9.60;99.90;;;;;;4936779;29;20449;-69
2023/11/04 07:59:36;;;;;;;1.37;0.97;;;9.70;99.90;;;;;;4919603;29;20232;-69
2023/11/04 08:02:03;;;;;;;2.83;1.00;;;9.80;99.90;;;;;;4941865;29;20500;-71
2023/11/04 08:04:28;;;;;;;1.40;1.07;;;9.80;99.90;;;;;;4925708;29;21170;-70
2023/11/04 08:06:54;;;;;;;5.77;1.63;;;10.00;99.90;;;;;;4925756;29;20525;-70
2023/11/04 08:09:20;;;;;;;1.97;1.10;;;10.00;99.90;;;;;;4940944;29;20616;-71
2023/11/04 08:11:46;;;;;;;1.57;1.10;;;10.00;99.90;;;;;;4928283;29;20186;-73
2023/11/04 08:14:11;;;;;;;2.07;1.10;;;10.00;99.90;;;;;;4928397;29;20414;-72
2023/11/04 08:16:38;;;;;;;2.47;1.17;;;10.00;99.90;;;;;;4928993;29;20189;-70
2023/11/04 08:19:05;;;;;;;2.20;0.90;;;9.90;99.90;;;;;;4923729;29;20182;-72
2023/11/04 08:21:32;;;;;;;2.40;1.07;;;9.90;99.90;;;;;;4933400;29;20421;-73
2023/11/04 08:24:00;;;;;;;1.47;1.10;;;9.90;99.90;;;;;;4940288;29;20680;-72
2023/11/04 08:26:26;;;;;;;2.23;1.00;;;9.90;99.90;;;;;;4905386;29;20501;-72
2023/11/04 08:28:52;;;;;;;1.73;0.90;;;9.90;99.90;;;;;;4931081;29;20442;-73
2023/11/04 08:31:19;;;;;;;1.33;1.07;;;10.00;99.90;;;;;;4907775;29;20190;-71
2023/11/04 08:33:44;;;;;;;2.83;1.13;;;10.10;99.90;;;;;;4942227;29;20418;-70
2023/11/04 08:36:10;;;;;;;1.87;1.17;;;10.20;99.90;;;;;;4934473;29;20528;-72
2023/11/04 08:38:36;;;;;;;2.53;1.30;;;10.30;99.90;;;;;;4919663;29;20194;-73
2023/11/04 08:41:02;;;;;;;1.70;1.40;;;10.40;99.90;;;;;;4933088;29;20194;-72
2023/11/04 08:43:28;;;;;;;1.73;1.50;;;10.40;99.90;;;;;;4932974;29;20258;-73
2023/11/04 08:45:54;;;;;;;1.90;1.20;;;10.40;99.90;;;;;;4923306;29;20501;-71
2023/11/04 08:48:19;;;;;;;2.80;1.23;;;10.40;99.90;;;;;;4922911;29;20621;-72
2023/11/04 08:50:45;;;;;;;1.90;1.53;;;10.40;99.90;;;;;;4922534;29;20232;-71
2023/11/04 08:53:11;;;;;;;2.17;1.10;;;10.30;99.90;;;;;;4943609;29;20337;-71
2023/11/04 08:55:37;;;;;;;1.83;1.37;;;10.30;99.90;;;;;;4939170;29;20217;-76
2023/11/04 08:58:02;;;;;;;1.90;1.20;;;10.30;99.90;;;;;;4920096;29;20226;-73
2023/11/04 09:00:29;;;;;;;2.17;1.37;;;10.30;99.90;;;;;;4927270;29;20511;-70
2023/11/04 09:02:55;;;;;;;2.60;1.33;;;10.30;99.90;;;;;;4926327;29;20226;-71
2023/11/04 09:05:21;;;;;;;5.60;1.90;;;10.40;99.90;;;;;;4935856;29;20462;-73
2023/11/04 09:07:47;;;;;;;5.07;1.60;;;10.40;99.90;;;;;;4927651;29;20411;-72
2023/11/04 09:10:13;;;;;;;2.43;1.40;;;10.50;99.90;;;;;;4926150;29;20227;-74
2023/11/04 09:12:39;;;;;;;2.03;1.37;;;10.50;99.90;;;;;;4934239;29;20238;-71
2023/11/04 09:15:05;;;;;;;2.57;1.47;;;10.50;99.90;;;;;;4917794;29;20450;-71
2023/11/04 09:17:30;;;;;;;3.23;1.50;;;10.60;99.90;;;;;;4925881;29;20194;-71
2023/11/04 09:19:57;;;;;;;2.30;1.40;;;10.60;99.90;;;;;;4929794;29;20432;-71
2023/11/04 09:22:22;;;;;;;2.60;1.57;;;10.60;99.90;;;;;;4940890;29;20205;-70
2023/11/04 09:24:48;;;;;;;4.50;1.90;;;10.60;99.90;;;;;;4942257;29;20481;-72
2023/11/04 09:27:13;;;;;;;2.10;1.80;;;10.80;99.90;;;;;;4933949;29;20201;-71
2023/11/04 09:29:39;;;;;;;3.27;1.77;;;10.80;99.90;;;;;;4929848;29;20187;-69
2023/11/04 09:32:05;;;;;;;4.20;1.93;;;10.80;99.90;;;;;;4926134;29;20198;-72
2023/11/04 09:34:31;;;;;;;5.13;1.70;;;10.80;99.90;;;;;;4925579;29;20215;-72
2023/11/04 09:36:56;;;;;;;1.90;1.60;;;10.90;99.90;;;;;;4928512;29;20182;-72
2023/11/04 09:39:22;;;;;;;1.93;1.47;;;10.90;99.90;;;;;;4928222;29;20466;-73
2023/11/04 09:41:51;;;;;;;3.10;1.40;;;11.00;99.90;;;;;;4933468;29;20292;-74
2023/11/04 09:44:17;;;;;;;2.20;1.80;;;11.00;99.90;;;;;;4944288;29;20537;-73
2023/11/04 09:46:43;;;;;;;2.90;1.37;;;11.10;99.90;;;;;;4945381;29;20426;-73
2023/11/04 09:49:08;;;;;;;2.47;1.33;;;11.10;99.90;;;;;;4937522;29;20186;-72
2023/11/04 09:51:34;;;;;;;2.60;1.30;;;11.30;99.90;;;;;;4945573;29;20429;-72
2023/11/04 09:54:00;;;;;;;1.90;1.40;;;11.40;99.90;;;;;;4931983;29;20167;-72
2023/11/04 09:56:26;;;;;;;2.10;1.50;;;11.50;99.90;;;;;;4939627;29;20450;-74
2023/11/04 09:58:52;;;;;;;2.00;1.43;;;11.60;99.90;;;;;;4910335;29;20478;-75
2023/11/04 10:01:18;;;;;;;5.40;1.53;;;11.80;99.90;;;;;;4926636;29;20491;-72
2023/11/04 10:03:46;;;;;;;1.50;1.07;;;11.90;99.90;;;;;;4925717;29;20200;-71
2023/11/04 10:06:12;;;;;;;2.03;1.30;;;11.90;99.90;;;;;;4926879;29;20228;-75
2023/11/04 10:08:38;;;;;;;1.43;0.90;;;12.10;99.90;;;;;;4926492;29;20429;-71
2023/11/04 10:11:05;;;;;;;3.00;1.03;;;12.30;99.90;;;;;;4930165;29;20851;-72
2023/11/04 10:13:31;;;;;;;3.33;1.27;;;12.50;99.90;;;;;;4929604;29;20227;-72
2023/11/04 10:15:56;;;;;;;2.47;1.30;;;12.70;99.90;;;;;;4934961;29;20500;-72
2023/11/04 10:18:24;;;;;;;4.10;0.90;;;12.80;99.90;;;;;;4934910;29;20586;-74
2023/11/04 10:20:50;;;;;;;1.97;1.10;;;12.80;97.80;;;;;;4926938;29;20209;-70
2023/11/04 10:23:16;;;;;;;3.00;1.10;;;12.70;96.50;;;;;;4934740;29;20441;-75
2023/11/04 10:25:42;;;;;;;2.40;1.07;;;12.70;92.30;;;;;;4915307;29;20473;-74
2023/11/04 10:28:08;;;;;;;2.03;1.20;;;12.70;91.70;;;;;;4927377;29;20526;-73
2023/11/04 10:30:37;;;;;;;1.50;0.90;;;12.60;91.10;;;;;;4941320;29;20260;-76
2023/11/04 10:33:07;;;;;;;2.00;1.03;;;12.60;90.10;;;;;;4932680;29;20430;-73
2023/11/04 10:35:34;;;;;;;3.10;1.17;;;12.50;90.30;;;;;;4918889;29;20518;-72
2023/11/04 10:38:06;;;;;;;1.70;1.10;;;12.30;90.60;;;;;;4921782;29;20440;-72
2023/11/04 10:40:33;;;;;;;4.63;1.57;;;12.20;91.60;;;;;;4944930;29;20434;-73
2023/11/04 10:43:07;;;;;;;4.27;1.33;;;12.10;92.10;;;;;;4927790;29;20542;-72
2023/11/04 10:45:44;;;;;;;3.90;1.13;;;12.00;93.10;;;;;;4915038;29;20494;-73
2023/11/04 10:48:31;;;;;;;7.30;1.30;;;11.80;94.40;;;;;;4917809;29;20418;-75
2023/11/04 10:51:12;;;;;;;2.40;1.40;;;11.70;95.80;;;;;;4947937;29;20433;-72
2023/11/04 10:53:45;;;;;;;2.63;1.27;;;11.60;96.60;;;;;;4927344;29;20433;-73
2023/11/04 10:56:24;;;;;;;9.23;1.70;;;11.50;97.70;;;;;;4916621;29;20454;-73
2023/11/04 10:59:13;;;;;;;2.80;1.40;;;11.40;99.00;;;;;;4936038;29;20491;-76
2023/11/04 11:01:41;;;;;;;3.90;1.47;;;11.40;99.30;;;;;;4927032;29;20508;-74
2023/11/04 11:04:09;;;;;;;2.30;1.10;;;11.30;99.40;;;;;;4912579;29;20434;-73
2023/11/04 11:06:35;;;;;;;3.80;1.83;;;11.20;99.90;;;;;;4939670;29;20447;-72
2023/11/04 11:09:04;;;;;;;2.00;1.30;;;11.20;99.90;;;;;;4941149;29;20430;-74
2023/11/04 11:11:45;;;;;;;2.53;1.40;;;11.00;99.90;;;;;;4909776;29;20516;-74
2023/11/04 11:14:11;;;;;;;8.83;2.47;;;10.80;99.90;;;;;;4933086;29;20478;-72
2023/11/04 11:16:37;;;;;;;4.40;1.87;;;10.60;99.90;;;;;;4930400;29;20448;-73
2023/11/04 11:19:10;;;;;;;3.07;1.43;;;10.40;99.90;;;;;;4941533;29;20443;-74
2023/11/04 11:21:49;;;;;;;7.33;1.40;;;10.20;99.90;;;;;;4919481;29;20183;-72
2023/11/04 11:24:20;;;;;;;3.80;1.60;;;10.00;99.90;;;;;;4928238;29;20484;-75
2023/11/04 11:27:04;;;;;;;3.30;1.57;;;9.90;99.90;;;;;;4913693;29;20774;-75
2023/11/04 11:29:33;;;;;;;3.60;1.80;;;10.00;99.90;;;;;;4911697;29;20426;-75
2023/11/04 11:32:08;;;;;;;3.33;1.33;;;9.90;99.90;;;;;;4936857;29;20446;-71
2023/11/04 11:34:34;;;;;;;5.33;1.60;;;9.90;99.90;;;;;;4939739;29;20486;-74
2023/11/04 11:37:03;;;;;;;4.10;1.60;;;9.90;99.90;;;;;;4937431;29;20421;-74
2023/11/04 11:39:29;;;;;;;2.10;1.20;;;9.90;99.90;;;;;;4935270;29;20438;-73
2023/11/04 11:41:56;;;;;;;8.80;1.67;;;9.80;99.90;;;;;;4912738;29;20426;-73
2023/11/04 11:44:22;;;;;;;3.73;2.17;;;9.90;99.90;;;;;;4926674;29;20206;-76
2023/11/04 11:46:47;;;;;;;3.73;1.53;;;9.90;99.90;;;;;;4944208;29;20402;-76
2023/11/04 11:49:13;;;;;;;3.20;1.50;;;9.90;99.90;;;;;;4935553;29;20264;-75
2023/11/04 11:51:38;;;;;;;4.93;2.10;;;9.90;99.90;;;;;;4948077;29;20230;-74
2023/11/04 11:54:04;;;;;;;3.23;2.30;;;10.00;99.90;;;;;;4902994;29;20582;-72
2023/11/04 11:56:30;;;;;;;3.00;1.87;;;10.00;99.90;;;;;;4935549;29;20609;-74
2023/11/04 11:59:06;;;;;;;3.97;1.90;;;10.00;99.90;;;;;;4925842;29;20964;-74
2023/11/04 12:01:33;;;;;;;1.90;1.20;;;9.90;99.90;;;;;;4930195;29;20458;-73
2023/11/04 12:04:01;;;;;;;1.73;1.30;;;9.80;99.90;;;;;;4928720;29;20426;-73
2023/11/04 12:06:30;;;;;;;2.83;1.63;;;9.80;99.90;;;;;;4939305;29;20465;-76
2023/11/04 12:08:57;;;;;;;7.83;4.60;;;9.80;99.90;;;;;;4934937;29;20430;-75
2023/11/04 12:11:26;;;;;;;3.13;1.43;;;9.70;99.90;;;;;;4923322;29;20419;-74
2023/11/04 12:13:52;;;;;;;5.83;1.43;;;9.60;99.90;;;;;;4936749;29;20422;-74
2023/11/04 12:16:18;;;;;;;5.73;1.80;;;9.50;99.90;;;;;;4943360;29;20434;-74
2023/11/04 12:18:47;;;;;;;3.80;1.67;;;9.50;99.90;;;;;;4904119;29;20420;-74
2023/11/04 12:21:16;;;;;;;2.70;1.40;;;9.50;99.90;;;;;;4918904;29;20186;-77
2023/11/04 12:23:42;;;;;;;4.13;1.73;;;9.60;99.90;;;;;;4940182;29;20497;-75
2023/11/04 12:26:08;;;;;;;5.90;1.77;;;9.70;99.90;;;;;;4926162;29;20559;-76
2023/11/04 12:28:42;;;;;;;2.47;1.37;;;9.70;99.90;;;;;;4915210;29;20202;-76
2023/11/04 12:31:08;;;;;;;3.30;2.20;;;9.70;99.90;;;;;;4928967;29;20194;-76
2023/11/04 12:33:37;;;;;;;5.87;1.70;;;9.80;99.90;;;;;;4923966;29;20425;-76
2023/11/04 12:36:06;;;;;;;3.10;1.70;;;10.00;99.90;;;;;;4955185;29;20433;-75
2023/11/04 12:38:32;;;;;;;4.77;1.90;;;9.90;99.90;;;;;;4926517;29;20425;-76
2023/11/04 12:41:00;;;;;;;2.07;1.40;;;10.00;99.90;;;;;;4902659;29;20783;-74
2023/11/04 12:43:25;;;;;;;3.60;1.47;;;10.00;99.90;;;;;;4937097;29;20257;-73
2023/11/04 12:45:56;;;;;;;2.90;1.20;;;10.10;99.90;;;;;;4927207;29;20486;-74
2023/11/04 12:48:22;;;;;;;4.10;1.37;;;10.10;99.90;;;;;;4931511;29;20191;-73
2023/11/04 12:50:48;;;;;;;2.90;1.67;;;10.10;99.90;;;;;;4935521;29;20645;-75
2023/11/04 12:53:14;;;;;;;4.13;1.17;;;10.10;99.90;;;;;;4904435;29;20486;-76